sensor_id;sensor_type;location;lat;lon;timestamp;P1;durP1;ratioP1;P2;durP2;ratioP2
69714;SDS011;56981;53.532;49.398;2022-07-24T00:02:19;12.73;;;9.30;;
69714;SDS011;56981;53.532;49.398;2022-07-24T00:04:46;13.07;;;9.25;;
69714;SDS011;56981;53.532;49.398;2022-07-24T00:07:12;18.08;;;9.57;;
69714;SDS011;56981;53.532;49.398;2022-07-24T00:09:38;13.10;;;8.68;;
69714;SDS011;56981;53.532;49.398;2022-07-24T00:12:04;16.20;;;9.63;;
69714;SDS011;56981;53.532;49.398;2022-07-24T00:14:31;13.65;;;10.35;;
69714;SDS011;56981;53.532;49.398;2022-07-24T00:16:57;16.48;;;9.48;;
69714;SDS011;56981;53.532;49.398;2022-07-24T00:19:23;15.05;;;10.23;;
69714;SDS011;56981;53.532;49.398;2022-07-24T00:21:49;12.85;;;10.05;;
69714;SDS011;56981;53.532;49.398;2022-07-24T00:24:15;14.93;;;10.68;;
69714;SDS011;56981;53.532;49.398;2022-07-24T00:26:43;16.23;;;10.70;;
69714;SDS011;56981;53.532;49.398;2022-07-24T00:29:09;16.05;;;10.70;;
69714;SDS011;56981;53.532;49.398;2022-07-24T00:31:35;16.30;;;10.18;;
69714;SDS011;56981;53.532;49.398;2022-07-24T00:34:01;19.55;;;10.77;;
69714;SDS011;56981;53.532;49.398;2022-07-24T00:36:27;13.82;;;10.23;;
69714;SDS011;56981;53.532;49.398;2022-07-24T00:38:53;15.77;;;9.80;;
69714;SDS011;56981;53.532;49.398;2022-07-24T00:41:19;16.80;;;10.68;;
69714;SDS011;56981;53.532;49.398;2022-07-24T00:44:01;14.00;;;9.80;;
69714;SDS011;56981;53.532;49.398;2022-07-24T00:46:28;15.55;;;9.45;;
69714;SDS011;56981;53.532;49.398;2022-07-24T00:48:54;13.18;;;8.82;;
69714;SDS011;56981;53.532;49.398;2022-07-24T00:51:21;15.52;;;9.02;;
69714;SDS011;56981;53.532;49.398;2022-07-24T00:53:48;14.13;;;9.50;;
69714;SDS011;56981;53.532;49.398;2022-07-24T00:56:14;14.27;;;10.13;;
69714;SDS011;56981;53.532;49.398;2022-07-24T00:58:40;12.45;;;9.40;;
69714;SDS011;56981;53.532;49.398;2022-07-24T01:01:07;16.45;;;9.65;;
69714;SDS011;56981;53.532;49.398;2022-07-24T01:03:33;15.88;;;9.52;;
69714;SDS011;56981;53.532;49.398;2022-07-24T01:05:59;15.38;;;9.13;;
69714;SDS011;56981;53.532;49.398;2022-07-24T01:08:25;19.33;;;10.10;;
69714;SDS011;56981;53.532;49.398;2022-07-24T01:10:51;15.43;;;9.75;;
69714;SDS011;56981;53.532;49.398;2022-07-24T01:13:17;13.02;;;9.23;;
69714;SDS011;56981;53.532;49.398;2022-07-24T01:15:45;15.82;;;9.40;;
69714;SDS011;56981;53.532;49.398;2022-07-24T01:18:12;11.75;;;8.75;;
69714;SDS011;56981;53.532;49.398;2022-07-24T01:20:38;13.55;;;9.57;;
69714;SDS011;56981;53.532;49.398;2022-07-24T01:23:05;12.32;;;9.23;;
69714;SDS011;56981;53.532;49.398;2022-07-24T01:25:31;13.55;;;8.60;;
69714;SDS011;56981;53.532;49.398;2022-07-24T01:27:57;14.88;;;9.07;;
69714;SDS011;56981;53.532;49.398;2022-07-24T01:30:23;13.07;;;9.38;;
69714;SDS011;56981;53.532;49.398;2022-07-24T01:32:49;13.18;;;8.93;;
69714;SDS011;56981;53.532;49.398;2022-07-24T01:35:16;15.93;;;8.95;;
69714;SDS011;56981;53.532;49.398;2022-07-24T01:37:42;19.60;;;9.95;;
69714;SDS011;56981;53.532;49.398;2022-07-24T01:40:08;16.63;;;9.63;;
69714;SDS011;56981;53.532;49.398;2022-07-24T01:42:34;17.17;;;10.52;;
69714;SDS011;56981;53.532;49.398;2022-07-24T01:45:00;15.18;;;9.60;;
69714;SDS011;56981;53.532;49.398;2022-07-24T01:47:26;14.45;;;9.77;;
69714;SDS011;56981;53.532;49.398;2022-07-24T01:49:52;17.90;;;9.48;;
69714;SDS011;56981;53.532;49.398;2022-07-24T01:52:18;15.43;;;9.18;;
69714;SDS011;56981;53.532;49.398;2022-07-24T01:54:44;10.65;;;8.05;;
69714;SDS011;56981;53.532;49.398;2022-07-24T01:57:11;12.05;;;9.32;;
69714;SDS011;56981;53.532;49.398;2022-07-24T01:59:37;11.73;;;9.68;;
69714;SDS011;56981;53.532;49.398;2022-07-24T02:02:03;13.13;;;10.63;;
69714;SDS011;56981;53.532;49.398;2022-07-24T02:04:29;13.80;;;11.00;;
69714;SDS011;56981;53.532;49.398;2022-07-24T02:06:55;17.55;;;13.02;;
69714;SDS011;56981;53.532;49.398;2022-07-24T02:09:21;18.40;;;13.63;;
69714;SDS011;56981;53.532;49.398;2022-07-24T02:11:47;18.83;;;13.48;;
69714;SDS011;56981;53.532;49.398;2022-07-24T02:14:13;17.60;;;13.02;;
69714;SDS011;56981;53.532;49.398;2022-07-24T02:16:39;16.70;;;12.63;;
69714;SDS011;56981;53.532;49.398;2022-07-24T02:19:05;19.40;;;12.77;;
69714;SDS011;56981;53.532;49.398;2022-07-24T02:21:31;15.30;;;11.20;;
69714;SDS011;56981;53.532;49.398;2022-07-24T02:23:57;15.73;;;11.10;;
69714;SDS011;56981;53.532;49.398;2022-07-24T02:26:23;15.40;;;10.25;;
69714;SDS011;56981;53.532;49.398;2022-07-24T02:28:49;12.68;;;9.98;;
69714;SDS011;56981;53.532;49.398;2022-07-24T02:31:15;12.07;;;9.35;;
69714;SDS011;56981;53.532;49.398;2022-07-24T02:33:42;11.93;;;10.13;;
69714;SDS011;56981;53.532;49.398;2022-07-24T02:36:08;12.27;;;9.88;;
69714;SDS011;56981;53.532;49.398;2022-07-24T02:38:34;14.13;;;9.57;;
69714;SDS011;56981;53.532;49.398;2022-07-24T02:41:00;13.77;;;9.88;;
69714;SDS011;56981;53.532;49.398;2022-07-24T02:43:26;12.02;;;10.18;;
69714;SDS011;56981;53.532;49.398;2022-07-24T02:45:52;12.70;;;10.15;;
69714;SDS011;56981;53.532;49.398;2022-07-24T02:48:19;11.43;;;10.23;;
69714;SDS011;56981;53.532;49.398;2022-07-24T02:50:45;12.48;;;10.23;;
69714;SDS011;56981;53.532;49.398;2022-07-24T02:53:12;11.82;;;9.52;;
69714;SDS011;56981;53.532;49.398;2022-07-24T02:55:38;11.65;;;9.10;;
69714;SDS011;56981;53.532;49.398;2022-07-24T02:58:04;11.52;;;9.60;;
69714;SDS011;56981;53.532;49.398;2022-07-24T03:00:30;11.73;;;9.48;;
69714;SDS011;56981;53.532;49.398;2022-07-24T03:02:56;10.45;;;9.30;;
69714;SDS011;56981;53.532;49.398;2022-07-24T03:05:22;11.30;;;8.68;;
69714;SDS011;56981;53.532;49.398;2022-07-24T03:07:49;10.75;;;8.95;;
69714;SDS011;56981;53.532;49.398;2022-07-24T03:10:15;11.77;;;8.43;;
69714;SDS011;56981;53.532;49.398;2022-07-24T03:12:41;9.63;;;8.38;;
69714;SDS011;56981;53.532;49.398;2022-07-24T03:15:08;10.93;;;9.15;;
69714;SDS011;56981;53.532;49.398;2022-07-24T03:17:35;10.25;;;9.15;;
69714;SDS011;56981;53.532;49.398;2022-07-24T03:20:02;10.73;;;8.38;;
69714;SDS011;56981;53.532;49.398;2022-07-24T03:22:29;9.20;;;8.02;;
69714;SDS011;56981;53.532;49.398;2022-07-24T03:24:55;10.35;;;9.35;;
69714;SDS011;56981;53.532;49.398;2022-07-24T03:27:21;9.82;;;8.73;;
69714;SDS011;56981;53.532;49.398;2022-07-24T03:29:47;9.88;;;8.75;;
69714;SDS011;56981;53.532;49.398;2022-07-24T03:32:13;10.43;;;9.13;;
69714;SDS011;56981;53.532;49.398;2022-07-24T03:34:42;10.02;;;8.95;;
69714;SDS011;56981;53.532;49.398;2022-07-24T03:37:08;11.63;;;9.98;;
69714;SDS011;56981;53.532;49.398;2022-07-24T03:39:34;11.88;;;9.80;;
69714;SDS011;56981;53.532;49.398;2022-07-24T03:42:01;18.33;;;12.82;;
69714;SDS011;56981;53.532;49.398;2022-07-24T03:44:28;16.83;;;11.95;;
69714;SDS011;56981;53.532;49.398;2022-07-24T03:46:54;12.32;;;9.93;;
69714;SDS011;56981;53.532;49.398;2022-07-24T03:49:20;12.15;;;9.80;;
69714;SDS011;56981;53.532;49.398;2022-07-24T03:51:46;12.00;;;10.00;;
69714;SDS011;56981;53.532;49.398;2022-07-24T03:54:12;16.13;;;11.85;;
69714;SDS011;56981;53.532;49.398;2022-07-24T03:56:38;15.52;;;11.43;;
69714;SDS011;56981;53.532;49.398;2022-07-24T03:59:04;14.32;;;11.32;;
69714;SDS011;56981;53.532;49.398;2022-07-24T04:01:30;15.25;;;10.82;;
69714;SDS011;56981;53.532;49.398;2022-07-24T04:03:56;13.30;;;10.48;;
69714;SDS011;56981;53.532;49.398;2022-07-24T04:06:32;12.50;;;10.35;;
69714;SDS011;56981;53.532;49.398;2022-07-24T04:08:59;13.13;;;10.93;;
69714;SDS011;56981;53.532;49.398;2022-07-24T04:11:26;15.32;;;11.07;;
69714;SDS011;56981;53.532;49.398;2022-07-24T04:13:54;16.42;;;11.98;;
69714;SDS011;56981;53.532;49.398;2022-07-24T04:16:20;26.65;;;16.45;;
69714;SDS011;56981;53.532;49.398;2022-07-24T04:18:46;16.90;;;11.93;;
69714;SDS011;56981;53.532;49.398;2022-07-24T04:21:12;20.45;;;13.63;;
69714;SDS011;56981;53.532;49.398;2022-07-24T04:23:39;15.63;;;11.82;;
69714;SDS011;56981;53.532;49.398;2022-07-24T04:26:05;16.95;;;12.82;;
69714;SDS011;56981;53.532;49.398;2022-07-24T04:28:31;17.98;;;12.20;;
69714;SDS011;56981;53.532;49.398;2022-07-24T04:30:57;26.08;;;17.33;;
69714;SDS011;56981;53.532;49.398;2022-07-24T04:33:23;26.38;;;16.50;;
69714;SDS011;56981;53.532;49.398;2022-07-24T04:35:49;24.42;;;15.95;;
69714;SDS011;56981;53.532;49.398;2022-07-24T04:38:15;24.25;;;16.00;;
69714;SDS011;56981;53.532;49.398;2022-07-24T04:40:41;21.13;;;15.07;;
69714;SDS011;56981;53.532;49.398;2022-07-24T04:43:08;18.40;;;13.55;;
69714;SDS011;56981;53.532;49.398;2022-07-24T04:45:34;20.30;;;13.88;;
69714;SDS011;56981;53.532;49.398;2022-07-24T04:48:00;20.08;;;14.93;;
69714;SDS011;56981;53.532;49.398;2022-07-24T04:50:26;20.85;;;13.18;;
69714;SDS011;56981;53.532;49.398;2022-07-24T04:52:52;16.33;;;13.13;;
69714;SDS011;56981;53.532;49.398;2022-07-24T04:55:18;23.15;;;16.23;;
69714;SDS011;56981;53.532;49.398;2022-07-24T04:57:45;25.35;;;18.38;;
69714;SDS011;56981;53.532;49.398;2022-07-24T05:00:12;28.25;;;17.55;;
69714;SDS011;56981;53.532;49.398;2022-07-24T05:02:38;19.77;;;13.80;;
69714;SDS011;56981;53.532;49.398;2022-07-24T05:05:05;16.65;;;13.15;;
69714;SDS011;56981;53.532;49.398;2022-07-24T05:07:31;17.27;;;13.85;;
69714;SDS011;56981;53.532;49.398;2022-07-24T05:09:58;19.63;;;14.02;;
69714;SDS011;56981;53.532;49.398;2022-07-24T05:12:25;22.60;;;15.77;;
69714;SDS011;56981;53.532;49.398;2022-07-24T05:14:51;23.73;;;16.70;;
69714;SDS011;56981;53.532;49.398;2022-07-24T05:17:18;18.83;;;15.48;;
69714;SDS011;56981;53.532;49.398;2022-07-24T05:19:44;24.23;;;17.33;;
69714;SDS011;56981;53.532;49.398;2022-07-24T05:22:10;21.98;;;14.32;;
69714;SDS011;56981;53.532;49.398;2022-07-24T05:24:36;13.90;;;12.32;;
69714;SDS011;56981;53.532;49.398;2022-07-24T05:27:02;14.77;;;12.38;;
69714;SDS011;56981;53.532;49.398;2022-07-24T05:29:29;13.07;;;11.55;;
69714;SDS011;56981;53.532;49.398;2022-07-24T05:31:55;28.83;;;19.70;;
69714;SDS011;56981;53.532;49.398;2022-07-24T05:34:21;29.73;;;19.27;;
69714;SDS011;56981;53.532;49.398;2022-07-24T05:37:22;31.05;;;19.70;;
69714;SDS011;56981;53.532;49.398;2022-07-24T05:42:07;17.45;;;14.30;;
69714;SDS011;56981;53.532;49.398;2022-07-24T05:44:34;15.68;;;11.95;;
69714;SDS011;56981;53.532;49.398;2022-07-24T05:47:05;13.35;;;12.02;;
69714;SDS011;56981;53.532;49.398;2022-07-24T05:49:31;12.85;;;11.65;;
69714;SDS011;56981;53.532;49.398;2022-07-24T05:52:01;12.40;;;11.30;;
69714;SDS011;56981;53.532;49.398;2022-07-24T05:54:28;12.32;;;11.20;;
69714;SDS011;56981;53.532;49.398;2022-07-24T05:56:57;12.63;;;11.38;;
69714;SDS011;56981;53.532;49.398;2022-07-24T05:59:24;12.30;;;11.20;;
69714;SDS011;56981;53.532;49.398;2022-07-24T06:01:53;13.15;;;11.73;;
69714;SDS011;56981;53.532;49.398;2022-07-24T06:04:33;12.25;;;11.05;;
69714;SDS011;56981;53.532;49.398;2022-07-24T06:07:01;12.30;;;11.18;;
69714;SDS011;56981;53.532;49.398;2022-07-24T06:09:27;11.27;;;9.98;;
69714;SDS011;56981;53.532;49.398;2022-07-24T06:11:57;10.60;;;9.60;;
69714;SDS011;56981;53.532;49.398;2022-07-24T06:14:27;10.07;;;9.07;;
69714;SDS011;56981;53.532;49.398;2022-07-24T06:16:53;9.73;;;8.77;;
69714;SDS011;56981;53.532;49.398;2022-07-24T06:19:19;10.15;;;8.27;;
69714;SDS011;56981;53.532;49.398;2022-07-24T06:21:45;8.88;;;7.20;;
69714;SDS011;56981;53.532;49.398;2022-07-24T06:24:13;11.35;;;7.45;;
69714;SDS011;56981;53.532;49.398;2022-07-24T06:26:39;8.88;;;7.90;;
69714;SDS011;56981;53.532;49.398;2022-07-24T06:29:05;9.00;;;7.32;;
69714;SDS011;56981;53.532;49.398;2022-07-24T06:31:32;16.05;;;7.72;;
69714;SDS011;56981;53.532;49.398;2022-07-24T06:33:58;20.52;;;7.75;;
69714;SDS011;56981;53.532;49.398;2022-07-24T06:36:25;7.28;;;6.57;;
69714;SDS011;56981;53.532;49.398;2022-07-24T06:38:52;7.50;;;5.97;;
69714;SDS011;56981;53.532;49.398;2022-07-24T06:41:26;7.63;;;6.82;;
69714;SDS011;56981;53.532;49.398;2022-07-24T06:43:52;7.32;;;6.63;;
69714;SDS011;56981;53.532;49.398;2022-07-24T06:46:21;7.10;;;6.40;;
69714;SDS011;56981;53.532;49.398;2022-07-24T06:48:51;6.75;;;6.13;;
69714;SDS011;56981;53.532;49.398;2022-07-24T06:51:20;7.72;;;6.57;;
69714;SDS011;56981;53.532;49.398;2022-07-24T06:53:46;17.83;;;7.57;;
69714;SDS011;56981;53.532;49.398;2022-07-24T06:56:16;7.07;;;6.38;;
69714;SDS011;56981;53.532;49.398;2022-07-24T06:59:05;16.27;;;7.20;;
69714;SDS011;56981;53.532;49.398;2022-07-24T07:01:31;7.13;;;6.50;;
69714;SDS011;56981;53.532;49.398;2022-07-24T07:03:57;7.00;;;6.30;;
69714;SDS011;56981;53.532;49.398;2022-07-24T07:06:23;7.30;;;5.93;;
69714;SDS011;56981;53.532;49.398;2022-07-24T07:08:49;6.93;;;6.32;;
69714;SDS011;56981;53.532;49.398;2022-07-24T07:11:16;7.32;;;6.15;;
69714;SDS011;56981;53.532;49.398;2022-07-24T07:13:42;6.97;;;6.25;;
69714;SDS011;56981;53.532;49.398;2022-07-24T07:16:08;6.55;;;5.95;;
69714;SDS011;56981;53.532;49.398;2022-07-24T07:18:34;10.10;;;6.88;;
69714;SDS011;56981;53.532;49.398;2022-07-24T07:21:02;10.88;;;6.60;;
69714;SDS011;56981;53.532;49.398;2022-07-24T07:23:28;11.10;;;6.28;;
69714;SDS011;56981;53.532;49.398;2022-07-24T07:25:55;8.88;;;6.32;;
69714;SDS011;56981;53.532;49.398;2022-07-24T07:28:21;7.45;;;5.93;;
69714;SDS011;56981;53.532;49.398;2022-07-24T07:30:48;7.70;;;5.90;;
69714;SDS011;56981;53.532;49.398;2022-07-24T07:33:14;7.03;;;6.00;;
69714;SDS011;56981;53.532;49.398;2022-07-24T07:35:40;6.68;;;5.97;;
69714;SDS011;56981;53.532;49.398;2022-07-24T07:38:06;6.65;;;6.03;;
69714;SDS011;56981;53.532;49.398;2022-07-24T07:40:32;7.60;;;6.32;;
69714;SDS011;56981;53.532;49.398;2022-07-24T07:42:58;7.40;;;6.13;;
69714;SDS011;56981;53.532;49.398;2022-07-24T07:45:25;6.93;;;5.85;;
69714;SDS011;56981;53.532;49.398;2022-07-24T07:47:51;5.88;;;5.32;;
69714;SDS011;56981;53.532;49.398;2022-07-24T07:50:17;6.97;;;6.28;;
69714;SDS011;56981;53.532;49.398;2022-07-24T07:52:43;6.40;;;5.85;;
69714;SDS011;56981;53.532;49.398;2022-07-24T07:55:10;8.07;;;5.63;;
69714;SDS011;56981;53.532;49.398;2022-07-24T07:57:36;5.85;;;5.25;;
69714;SDS011;56981;53.532;49.398;2022-07-24T08:00:03;8.70;;;5.32;;
69714;SDS011;56981;53.532;49.398;2022-07-24T08:02:29;9.88;;;6.88;;
69714;SDS011;56981;53.532;49.398;2022-07-24T08:04:56;17.35;;;7.30;;
69714;SDS011;56981;53.532;49.398;2022-07-24T08:07:22;8.38;;;5.57;;
69714;SDS011;56981;53.532;49.398;2022-07-24T08:09:48;9.35;;;6.15;;
69714;SDS011;56981;53.532;49.398;2022-07-24T08:12:14;6.38;;;5.78;;
69714;SDS011;56981;53.532;49.398;2022-07-24T08:14:40;8.18;;;6.45;;
69714;SDS011;56981;53.532;49.398;2022-07-24T08:17:07;6.72;;;6.00;;
69714;SDS011;56981;53.532;49.398;2022-07-24T08:19:33;6.75;;;5.70;;
69714;SDS011;56981;53.532;49.398;2022-07-24T08:21:59;6.63;;;6.03;;
69714;SDS011;56981;53.532;49.398;2022-07-24T08:24:25;7.22;;;5.40;;
69714;SDS011;56981;53.532;49.398;2022-07-24T08:26:52;7.18;;;5.88;;
69714;SDS011;56981;53.532;49.398;2022-07-24T08:29:18;10.20;;;5.68;;
69714;SDS011;56981;53.532;49.398;2022-07-24T08:31:47;8.02;;;5.68;;
69714;SDS011;56981;53.532;49.398;2022-07-24T08:34:13;6.45;;;5.32;;
69714;SDS011;56981;53.532;49.398;2022-07-24T08:36:40;8.13;;;5.35;;
69714;SDS011;56981;53.532;49.398;2022-07-24T08:39:19;7.05;;;6.03;;
69714;SDS011;56981;53.532;49.398;2022-07-24T08:41:49;15.73;;;5.88;;
69714;SDS011;56981;53.532;49.398;2022-07-24T08:44:15;6.03;;;5.43;;
69714;SDS011;56981;53.532;49.398;2022-07-24T08:46:42;6.40;;;4.72;;
69714;SDS011;56981;53.532;49.398;2022-07-24T08:49:12;14.02;;;5.03;;
69714;SDS011;56981;53.532;49.398;2022-07-24T08:51:40;9.88;;;5.28;;
69714;SDS011;56981;53.532;49.398;2022-07-24T08:54:08;4.63;;;4.22;;
69714;SDS011;56981;53.532;49.398;2022-07-24T08:56:40;6.82;;;5.03;;
69714;SDS011;56981;53.532;49.398;2022-07-24T08:59:27;6.60;;;5.97;;
69714;SDS011;56981;53.532;49.398;2022-07-24T09:01:56;12.02;;;8.52;;
69714;SDS011;56981;53.532;49.398;2022-07-24T09:04:32;12.30;;;7.55;;
69714;SDS011;56981;53.532;49.398;2022-07-24T09:07:06;8.88;;;6.22;;
69714;SDS011;56981;53.532;49.398;2022-07-24T09:09:38;27.77;;;21.73;;
69714;SDS011;56981;53.532;49.398;2022-07-24T09:12:06;8.73;;;7.13;;
69714;SDS011;56981;53.532;49.398;2022-07-24T09:14:44;14.32;;;7.30;;
69714;SDS011;56981;53.532;49.398;2022-07-24T09:17:14;58.75;;;8.13;;
69714;SDS011;56981;53.532;49.398;2022-07-24T09:19:55;6.95;;;5.65;;
69714;SDS011;56981;53.532;49.398;2022-07-24T09:27:33;6.22;;;4.85;;
69714;SDS011;56981;53.532;49.398;2022-07-24T09:30:00;5.63;;;5.13;;
69714;SDS011;56981;53.532;49.398;2022-07-24T09:32:27;5.22;;;4.70;;
69714;SDS011;56981;53.532;49.398;2022-07-24T09:34:53;5.35;;;4.85;;
69714;SDS011;56981;53.532;49.398;2022-07-24T09:37:20;18.63;;;15.77;;
69714;SDS011;56981;53.532;49.398;2022-07-24T09:39:47;12.63;;;10.80;;
69714;SDS011;56981;53.532;49.398;2022-07-24T09:42:13;21.02;;;12.27;;
69714;SDS011;56981;53.532;49.398;2022-07-24T09:44:40;9.55;;;7.80;;
69714;SDS011;56981;53.532;49.398;2022-07-24T09:47:10;7.70;;;6.32;;
69714;SDS011;56981;53.532;49.398;2022-07-24T09:49:41;7.25;;;6.00;;
69714;SDS011;56981;53.532;49.398;2022-07-24T09:52:09;6.25;;;5.47;;
69714;SDS011;56981;53.532;49.398;2022-07-24T09:54:37;10.52;;;8.48;;
69714;SDS011;56981;53.532;49.398;2022-07-24T09:57:14;7.47;;;5.70;;
69714;SDS011;56981;53.532;49.398;2022-07-24T09:59:49;5.60;;;5.10;;
69714;SDS011;56981;53.532;49.398;2022-07-24T10:02:25;5.93;;;5.32;;
69714;SDS011;56981;53.532;49.398;2022-07-24T10:07:20;6.03;;;5.22;;
69714;SDS011;56981;53.532;49.398;2022-07-24T10:09:49;6.45;;;5.80;;
69714;SDS011;56981;53.532;49.398;2022-07-24T10:12:18;9.07;;;6.57;;
69714;SDS011;56981;53.532;49.398;2022-07-24T10:14:47;8.23;;;5.35;;
69714;SDS011;56981;53.532;49.398;2022-07-24T10:17:15;5.00;;;4.60;;
69714;SDS011;56981;53.532;49.398;2022-07-24T10:19:46;8.43;;;4.40;;
69714;SDS011;56981;53.532;49.398;2022-07-24T10:22:14;5.15;;;4.63;;
69714;SDS011;56981;53.532;49.398;2022-07-24T10:27:23;5.70;;;4.78;;
69714;SDS011;56981;53.532;49.398;2022-07-24T10:29:49;7.45;;;5.05;;
69714;SDS011;56981;53.532;49.398;2022-07-24T10:32:18;6.53;;;4.82;;
69714;SDS011;56981;53.532;49.398;2022-07-24T10:35:27;5.90;;;5.13;;
69714;SDS011;56981;53.532;49.398;2022-07-24T10:38:02;5.60;;;5.03;;
69714;SDS011;56981;53.532;49.398;2022-07-24T10:40:44;7.45;;;5.22;;
69714;SDS011;56981;53.532;49.398;2022-07-24T10:43:14;5.60;;;4.85;;
69714;SDS011;56981;53.532;49.398;2022-07-24T10:45:42;6.00;;;5.40;;
69714;SDS011;56981;53.532;49.398;2022-07-24T10:53:23;8.65;;;5.00;;
69714;SDS011;56981;53.532;49.398;2022-07-24T10:55:51;5.32;;;4.82;;
69714;SDS011;56981;53.532;49.398;2022-07-24T10:58:17;6.75;;;5.05;;
69714;SDS011;56981;53.532;49.398;2022-07-24T11:00:47;7.80;;;4.40;;
69714;SDS011;56981;53.532;49.398;2022-07-24T11:03:24;8.43;;;5.25;;
69714;SDS011;56981;53.532;49.398;2022-07-24T11:08:32;9.00;;;7.03;;
69714;SDS011;56981;53.532;49.398;2022-07-24T11:11:20;7.68;;;6.60;;
69714;SDS011;56981;53.532;49.398;2022-07-24T11:13:53;6.20;;;5.47;;
69714;SDS011;56981;53.532;49.398;2022-07-24T11:16:26;6.00;;;5.43;;
69714;SDS011;56981;53.532;49.398;2022-07-24T11:24:23;7.95;;;5.00;;
69714;SDS011;56981;53.532;49.398;2022-07-24T11:29:50;14.18;;;10.25;;
69714;SDS011;56981;53.532;49.398;2022-07-24T11:32:18;6.10;;;4.78;;
69714;SDS011;56981;53.532;49.398;2022-07-24T11:34:45;8.82;;;6.20;;
69714;SDS011;56981;53.532;49.398;2022-07-24T11:37:16;6.13;;;5.53;;
69714;SDS011;56981;53.532;49.398;2022-07-24T11:39:44;6.97;;;5.47;;
69714;SDS011;56981;53.532;49.398;2022-07-24T11:42:12;7.57;;;5.80;;
69714;SDS011;56981;53.532;49.398;2022-07-24T11:44:47;5.90;;;4.50;;
69714;SDS011;56981;53.532;49.398;2022-07-24T11:47:15;7.03;;;4.82;;
69714;SDS011;56981;53.532;49.398;2022-07-24T11:49:47;6.57;;;5.03;;
69714;SDS011;56981;53.532;49.398;2022-07-24T11:52:24;5.32;;;4.75;;
69714;SDS011;56981;53.532;49.398;2022-07-24T11:57:37;6.13;;;5.32;;
69714;SDS011;56981;53.532;49.398;2022-07-24T12:00:06;4.97;;;4.55;;
69714;SDS011;56981;53.532;49.398;2022-07-24T12:02:37;6.55;;;5.95;;
69714;SDS011;56981;53.532;49.398;2022-07-24T12:05:08;9.18;;;7.53;;
69714;SDS011;56981;53.532;49.398;2022-07-24T12:07:34;5.60;;;5.00;;
69714;SDS011;56981;53.532;49.398;2022-07-24T12:10:02;6.35;;;5.53;;
69714;SDS011;56981;53.532;49.398;2022-07-24T12:12:34;6.80;;;6.10;;
69714;SDS011;56981;53.532;49.398;2022-07-24T12:15:08;6.82;;;5.75;;
69714;SDS011;56981;53.532;49.398;2022-07-24T12:23:08;5.90;;;5.10;;
69714;SDS011;56981;53.532;49.398;2022-07-24T12:25:39;5.93;;;4.50;;
69714;SDS011;56981;53.532;49.398;2022-07-24T12:28:10;6.07;;;5.47;;
69714;SDS011;56981;53.532;49.398;2022-07-24T12:30:38;6.03;;;5.25;;
69714;SDS011;56981;53.532;49.398;2022-07-24T12:33:24;6.85;;;5.85;;
69714;SDS011;56981;53.532;49.398;2022-07-24T12:35:58;7.00;;;6.32;;
69714;SDS011;56981;53.532;49.398;2022-07-24T12:41:10;6.60;;;5.90;;
69714;SDS011;56981;53.532;49.398;2022-07-24T12:43:52;14.45;;;8.80;;
69714;SDS011;56981;53.532;49.398;2022-07-24T12:48:59;12.15;;;6.80;;
69714;SDS011;56981;53.532;49.398;2022-07-24T12:51:27;10.57;;;7.82;;
69714;SDS011;56981;53.532;49.398;2022-07-24T12:56:58;6.38;;;4.55;;
69714;SDS011;56981;53.532;49.398;2022-07-24T12:59:29;6.25;;;4.85;;
69714;SDS011;56981;53.532;49.398;2022-07-24T13:01:58;6.00;;;5.40;;
69714;SDS011;56981;53.532;49.398;2022-07-24T13:04:28;8.98;;;5.50;;
69714;SDS011;56981;53.532;49.398;2022-07-24T13:06:56;6.22;;;5.63;;
69714;SDS011;56981;53.532;49.398;2022-07-24T13:09:24;6.25;;;5.65;;
69714;SDS011;56981;53.532;49.398;2022-07-24T13:11:52;6.88;;;5.57;;
69714;SDS011;56981;53.532;49.398;2022-07-24T13:14:20;9.02;;;6.03;;
69714;SDS011;56981;53.532;49.398;2022-07-24T13:16:49;16.58;;;8.65;;
69714;SDS011;56981;53.532;49.398;2022-07-24T13:19:16;12.07;;;6.47;;
69714;SDS011;56981;53.532;49.398;2022-07-24T13:21:44;8.52;;;5.90;;
69714;SDS011;56981;53.532;49.398;2022-07-24T13:24:11;8.60;;;5.93;;
69714;SDS011;56981;53.532;49.398;2022-07-24T13:26:40;8.18;;;6.30;;
69714;SDS011;56981;53.532;49.398;2022-07-24T13:29:07;9.70;;;6.72;;
69714;SDS011;56981;53.532;49.398;2022-07-24T13:31:34;10.15;;;6.88;;
69714;SDS011;56981;53.532;49.398;2022-07-24T13:34:00;8.40;;;6.63;;
69714;SDS011;56981;53.532;49.398;2022-07-24T13:36:27;9.25;;;6.65;;
69714;SDS011;56981;53.532;49.398;2022-07-24T13:38:53;11.45;;;7.20;;
69714;SDS011;56981;53.532;49.398;2022-07-24T13:41:19;9.85;;;7.78;;
69714;SDS011;56981;53.532;49.398;2022-07-24T13:43:50;8.73;;;6.85;;
69714;SDS011;56981;53.532;49.398;2022-07-24T13:46:16;14.32;;;8.07;;
69714;SDS011;56981;53.532;49.398;2022-07-24T13:48:43;8.93;;;7.13;;
69714;SDS011;56981;53.532;49.398;2022-07-24T13:51:10;10.57;;;7.80;;
69714;SDS011;56981;53.532;49.398;2022-07-24T13:53:36;13.65;;;8.45;;
69714;SDS011;56981;53.532;49.398;2022-07-24T13:56:06;10.55;;;7.80;;
69714;SDS011;56981;53.532;49.398;2022-07-24T13:58:33;9.75;;;7.20;;
69714;SDS011;56981;53.532;49.398;2022-07-24T14:01:02;9.30;;;6.35;;
69714;SDS011;56981;53.532;49.398;2022-07-24T14:03:29;9.55;;;6.30;;
69714;SDS011;56981;53.532;49.398;2022-07-24T14:05:56;10.50;;;6.75;;
69714;SDS011;56981;53.532;49.398;2022-07-24T14:08:22;12.02;;;7.53;;
69714;SDS011;56981;53.532;49.398;2022-07-24T14:10:48;9.68;;;6.70;;
69714;SDS011;56981;53.532;49.398;2022-07-24T14:13:14;10.55;;;8.80;;
69714;SDS011;56981;53.532;49.398;2022-07-24T14:15:40;11.60;;;9.35;;
69714;SDS011;56981;53.532;49.398;2022-07-24T14:18:07;11.70;;;8.88;;
69714;SDS011;56981;53.532;49.398;2022-07-24T14:20:33;9.73;;;7.63;;
69714;SDS011;56981;53.532;49.398;2022-07-24T14:22:59;13.70;;;7.25;;
69714;SDS011;56981;53.532;49.398;2022-07-24T14:25:25;7.97;;;6.80;;
69714;SDS011;56981;53.532;49.398;2022-07-24T14:27:52;11.10;;;6.97;;
69714;SDS011;56981;53.532;49.398;2022-07-24T14:30:19;15.68;;;10.68;;
69714;SDS011;56981;53.532;49.398;2022-07-24T14:32:45;11.30;;;7.90;;
69714;SDS011;56981;53.532;49.398;2022-07-24T14:35:11;15.88;;;7.78;;
69714;SDS011;56981;53.532;49.398;2022-07-24T14:37:37;12.65;;;8.40;;
69714;SDS011;56981;53.532;49.398;2022-07-24T14:40:04;12.80;;;10.43;;
69714;SDS011;56981;53.532;49.398;2022-07-24T14:42:32;15.88;;;10.40;;
69714;SDS011;56981;53.532;49.398;2022-07-24T14:45:01;10.55;;;8.88;;
69714;SDS011;56981;53.532;49.398;2022-07-24T14:47:29;10.70;;;7.53;;
69714;SDS011;56981;53.532;49.398;2022-07-24T14:49:55;7.32;;;6.53;;
69714;SDS011;56981;53.532;49.398;2022-07-24T14:52:22;11.05;;;7.40;;
69714;SDS011;56981;53.532;49.398;2022-07-24T14:54:48;8.60;;;7.00;;
69714;SDS011;56981;53.532;49.398;2022-07-24T14:57:15;11.13;;;8.23;;
69714;SDS011;56981;53.532;49.398;2022-07-24T14:59:41;10.43;;;8.25;;
69714;SDS011;56981;53.532;49.398;2022-07-24T15:02:08;9.75;;;7.35;;
69714;SDS011;56981;53.532;49.398;2022-07-24T15:04:35;10.50;;;7.65;;
69714;SDS011;56981;53.532;49.398;2022-07-24T15:07:02;13.00;;;8.48;;
69714;SDS011;56981;53.532;49.398;2022-07-24T15:09:28;13.73;;;7.78;;
69714;SDS011;56981;53.532;49.398;2022-07-24T15:11:55;11.10;;;7.90;;
69714;SDS011;56981;53.532;49.398;2022-07-24T15:14:21;10.32;;;7.30;;